createdAt,value
2022-11-19T00:00:11.147Z,100.00
2022-11-19T00:03:15.967Z,100.00
2022-11-19T00:06:21.750Z,100.00
2022-11-19T00:09:24.974Z,100.00
2022-11-19T00:12:46.491Z,100.00
2022-11-19T00:15:49.464Z,100.00
2022-11-19T00:18:52.221Z,100.00
2022-11-19T00:21:55.186Z,100.00
2022-11-19T00:24:57.914Z,100.00
2022-11-19T00:28:00.863Z,100.00
2022-11-19T04:24:10.249Z,100.00
2022-11-19T04:27:13.128Z,100.00
2022-11-19T04:30:16.329Z,100.00
2022-11-19T04:33:19.323Z,100.00
2022-11-19T04:36:21.980Z,100.00
2022-11-19T04:39:25.092Z,100.00
2022-11-19T04:42:27.837Z,100.00
2022-11-19T04:45:31.492Z,100.00
2022-11-19T04:48:34.028Z,100.00
2022-11-19T04:51:37.044Z,100.00
2022-11-19T04:54:40.777Z,100.00
2022-11-19T04:58:13.371Z,100.00
2022-11-19T05:01:28.791Z,100.00
2022-11-19T05:04:31.837Z,100.00
2022-11-19T05:07:34.677Z,100.00
2022-11-19T05:10:37.880Z,100.00
2022-11-19T05:13:40.393Z,100.00
2022-11-19T05:16:43.344Z,100.00
2022-11-19T05:19:45.986Z,100.00
2022-11-19T05:22:49.377Z,100.00
2022-11-19T05:25:52.493Z,100.00
2022-11-19T05:28:55.475Z,100.00
2022-11-19T05:31:58.143Z,100.00
2022-11-19T05:35:01.101Z,100.00
2022-11-19T05:38:08.476Z,100.00
2022-11-19T05:41:11.420Z,100.00
2022-11-19T05:44:14.034Z,100.00
2022-11-19T05:47:17.526Z,100.00
2022-11-19T05:50:20.601Z,100.00
2022-11-19T05:53:26.969Z,100.00
2022-11-19T05:56:38.368Z,100.00
2022-11-19T05:59:46.628Z,100.00
2022-11-19T06:02:49.809Z,100.00
2022-11-19T06:06:06.266Z,100.00
2022-11-19T06:09:23.267Z,100.00
2022-11-19T06:12:40.197Z,100.00
2022-11-19T06:15:47.081Z,100.00
2022-11-19T06:18:50.133Z,100.00
2022-11-19T06:21:53.437Z,100.00
2022-11-19T06:24:56.349Z,100.00
2022-11-19T06:28:18.868Z,100.00
2022-11-19T06:31:22.509Z,100.00
2022-11-19T06:34:25.219Z,100.00
2022-11-19T06:37:30.100Z,100.00
2022-11-19T06:40:32.783Z,100.00
2022-11-19T06:43:35.739Z,100.00
2022-11-19T06:46:38.582Z,100.00
2022-11-19T06:49:46.525Z,100.00
2022-11-19T06:52:49.336Z,100.00
2022-11-19T06:56:05.893Z,100.00
2022-11-19T06:59:08.861Z,100.00
2022-11-19T07:02:12.627Z,100.00
2022-11-19T07:05:15.382Z,100.00
2022-11-19T07:08:39.455Z,100.00
2022-11-19T07:11:42.129Z,100.00
2022-11-19T07:15:06.955Z,100.00
2022-11-19T07:18:14.128Z,100.00
2022-11-19T07:21:37.591Z,100.00
2022-11-19T07:25:12.949Z,100.00
2022-11-19T07:29:00.511Z,100.00
2022-11-19T07:32:39.891Z,100.00
2022-11-19T07:36:39.331Z,100.00
2022-11-19T07:40:03.785Z,100.00
2022-11-19T07:43:28.327Z,100.00
2022-11-19T07:46:51.568Z,100.00
2022-11-19T07:50:17.245Z,100.00
2022-11-19T07:53:59.789Z,100.00
2022-11-19T07:57:30.326Z,100.00
2022-11-19T08:01:18.680Z,100.00
2022-11-19T08:04:57.476Z,100.00
2022-11-19T08:08:43.154Z,97.13
2022-11-19T09:55:32.526Z,92.24
2022-11-19T09:59:32.768Z,84.77
2022-11-19T10:02:35.781Z,87.82
2022-11-19T10:05:48.090Z,91.74
2022-11-19T10:09:45.215Z,91.30
2022-11-19T10:13:13.933Z,89.00
2022-11-19T10:16:30.397Z,87.05
2022-11-19T10:19:57.778Z,90.90
2022-11-19T10:23:13.962Z,92.92
2022-11-19T10:26:19.298Z,93.77
2022-11-19T10:29:26.990Z,92.21
2022-11-19T10:32:42.830Z,97.55
2022-11-19T10:35:54.357Z,96.62
2022-11-19T10:39:07.949Z,90.75
2022-11-19T10:42:35.840Z,94.18
2022-11-19T10:45:38.918Z,99.80
2022-11-19T10:48:56.129Z,99.24
2022-11-19T10:52:03.536Z,96.68
2022-11-19T10:55:24.413Z,100.00
2022-11-19T10:58:47.080Z,100.00
2022-11-19T11:01:54.100Z,100.00
2022-11-19T11:05:09.805Z,100.00
2022-11-19T11:08:12.495Z,100.00
2022-11-19T11:11:50.940Z,100.00
2022-11-19T11:14:56.631Z,99.72
2022-11-19T11:18:05.336Z,100.00
2022-11-19T11:21:13.957Z,100.00
2022-11-19T11:24:39.283Z,100.00
2022-11-19T11:27:42.246Z,100.00
2022-11-19T11:30:54.433Z,100.00
2022-11-19T11:33:58.160Z,100.00
2022-11-19T11:37:04.244Z,100.00
2022-11-19T11:40:07.660Z,100.00
2022-11-19T11:43:18.330Z,100.00
2022-11-19T11:46:21.181Z,100.00
2022-11-19T12:04:45.172Z,100.00
2022-11-19T12:08:00.372Z,100.00
2022-11-19T12:11:18.517Z,100.00
2022-11-19T12:14:23.547Z,100.00
2022-11-19T12:18:29.245Z,100.00
2022-11-19T12:25:56.295Z,100.00
2022-11-19T12:30:15.212Z,100.00
2022-11-19T12:34:00.529Z,100.00
2022-11-19T12:37:44.229Z,100.00
2022-11-19T12:41:02.714Z,100.00
2022-11-19T12:44:25.437Z,100.00
2022-11-19T12:47:51.234Z,100.00
2022-11-19T12:51:02.394Z,100.00
2022-11-19T12:54:35.281Z,100.00
2022-11-19T12:58:30.580Z,100.00
2022-11-19T13:01:43.771Z,100.00
2022-11-19T13:05:22.393Z,100.00
2022-11-19T13:09:00.695Z,100.00
2022-11-19T13:12:08.697Z,100.00
2022-11-19T13:15:32.135Z,100.00
2022-11-19T13:19:27.761Z,100.00
2022-11-19T13:22:37.522Z,100.00
2022-11-19T13:25:45.217Z,100.00
2022-11-19T13:28:56.177Z,100.00
2022-11-19T13:32:07.776Z,100.00
2022-11-19T13:36:06.327Z,100.00
2022-11-19T13:39:39.934Z,100.00
2022-11-19T13:43:25.437Z,100.00
2022-11-19T13:46:40.731Z,100.00
2022-11-19T13:50:33.867Z,100.00
2022-11-19T13:53:44.576Z,100.00
2022-11-19T13:57:09.630Z,100.00
2022-11-19T14:01:13.889Z,100.00
2022-11-19T14:04:45.728Z,100.00
2022-11-19T14:08:05.770Z,100.00
2022-11-19T14:11:34.612Z,100.00
2022-11-19T14:15:34.766Z,100.00
2022-11-19T14:19:20.788Z,100.00
2022-11-19T14:22:50.778Z,100.00
2022-11-19T14:26:12.474Z,100.00
2022-11-19T14:29:27.446Z,100.00
2022-11-19T14:32:34.795Z,100.00
2022-11-19T14:35:39.180Z,100.00
2022-11-19T14:38:48.225Z,100.00
2022-11-19T14:42:19.054Z,100.00
2022-11-19T14:45:22.114Z,100.00
2022-11-19T14:48:24.949Z,100.00
2022-11-19T14:51:39.070Z,100.00
2022-11-19T14:54:46.003Z,100.00
2022-11-19T14:58:21.177Z,100.00
2022-11-19T15:01:24.775Z,100.00
2022-11-19T15:04:37.808Z,100.00
2022-11-19T15:07:54.292Z,100.00
2022-11-19T15:11:01.903Z,100.00
2022-11-19T15:14:29.407Z,100.00
2022-11-19T15:17:35.385Z,100.00
2022-11-19T15:20:56.266Z,100.00
2022-11-19T15:24:18.008Z,100.00
2022-11-19T15:27:35.376Z,100.00
2022-11-19T15:31:25.173Z,100.00
2022-11-19T15:34:38.550Z,100.00
2022-11-19T15:37:59.722Z,100.00
2022-11-19T15:41:04.880Z,100.00
2022-11-19T15:44:13.528Z,100.00
2022-11-19T15:47:25.658Z,100.00
2022-11-19T15:50:29.194Z,100.00
2022-11-19T15:53:32.009Z,100.00
2022-11-19T15:56:38.259Z,100.00
2022-11-19T15:59:42.343Z,100.00
2022-11-19T16:02:48.823Z,100.00
2022-11-19T16:06:05.905Z,100.00
2022-11-19T16:09:18.619Z,100.00
2022-11-19T16:12:43.577Z,100.00
2022-11-19T16:19:32.000Z,100.00
2022-11-19T16:22:58.181Z,100.00
2022-11-19T16:26:02.692Z,100.00
2022-11-19T16:29:05.493Z,100.00
2022-11-19T16:32:08.791Z,100.00
2022-11-19T16:35:24.785Z,100.00
2022-11-19T16:38:28.925Z,100.00
2022-11-19T16:41:50.197Z,100.00
2022-11-19T16:45:05.520Z,100.00
2022-11-19T16:48:43.812Z,100.00
2022-11-19T16:51:53.812Z,100.00
2022-11-19T16:54:56.389Z,100.00
2022-11-19T16:58:23.592Z,100.00
2022-11-19T17:01:29.423Z,100.00
2022-11-19T17:04:32.751Z,100.00
2022-11-19T17:07:36.725Z,100.00
2022-11-19T17:10:39.739Z,100.00
2022-11-19T17:13:42.335Z,100.00
2022-11-19T17:16:47.079Z,100.00
2022-11-19T17:19:50.400Z,100.00
2022-11-19T17:22:58.701Z,100.00
2022-11-19T17:26:04.823Z,100.00
2022-11-19T17:29:11.238Z,100.00
2022-11-19T17:32:13.949Z,100.00
2022-11-19T17:35:36.083Z,100.00
2022-11-19T17:38:39.253Z,100.00
2022-11-19T17:42:02.279Z,100.00
2022-11-19T17:45:10.544Z,100.00
2022-11-19T17:48:22.965Z,100.00
2022-11-19T17:51:46.475Z,100.00
2022-11-19T17:54:50.414Z,100.00
2022-11-19T17:58:12.977Z,100.00
2022-11-19T18:01:28.441Z,100.00
2022-11-19T18:04:32.028Z,100.00
2022-11-19T18:07:34.615Z,100.00
2022-11-19T18:10:37.696Z,100.00
2022-11-19T18:13:42.405Z,100.00
2022-11-19T18:17:25.359Z,100.00
2022-11-19T18:20:28.189Z,100.00
2022-11-19T18:23:31.345Z,100.00
2022-11-19T18:26:34.181Z,100.00
2022-11-19T18:29:37.159Z,100.00
2022-11-19T18:32:40.117Z,100.00
2022-11-19T18:35:43.170Z,100.00
2022-11-19T18:38:46.168Z,100.00
2022-11-19T18:42:12.110Z,100.00
2022-11-19T18:45:15.676Z,100.00
2022-11-19T18:48:57.240Z,100.00
2022-11-19T18:52:28.495Z,100.00
2022-11-19T18:55:32.740Z,100.00
2022-11-19T18:58:35.795Z,100.00
2022-11-19T19:01:40.803Z,100.00
2022-11-19T19:04:48.304Z,100.00
2022-11-19T19:07:56.161Z,100.00
2022-11-19T19:11:26.819Z,100.00
2022-11-19T19:15:10.890Z,100.00
2022-11-19T19:18:45.268Z,100.00
2022-11-19T19:22:19.275Z,100.00
2022-11-19T19:26:03.579Z,100.00
2022-11-19T19:29:47.683Z,100.00
2022-11-19T19:32:50.895Z,100.00
2022-11-19T19:35:53.756Z,100.00
2022-11-19T19:38:57.449Z,100.00
2022-11-19T19:42:00.700Z,100.00
2022-11-19T19:45:03.907Z,100.00
2022-11-19T19:48:06.741Z,100.00
2022-11-19T19:51:09.708Z,100.00
2022-11-19T19:54:12.633Z,100.00
2022-11-19T19:57:16.475Z,100.00
2022-11-19T20:00:19.644Z,100.00
2022-11-19T20:03:25.763Z,100.00
2022-11-19T20:06:29.316Z,100.00
2022-11-19T20:09:32.447Z,100.00
2022-11-19T20:12:54.773Z,100.00
2022-11-19T20:16:20.215Z,100.00
2022-11-19T20:19:22.969Z,100.00
2022-11-19T20:22:26.003Z,100.00
2022-11-19T20:25:28.644Z,100.00
2022-11-19T20:28:32.480Z,100.00
2022-11-19T20:31:35.943Z,100.00
2022-11-19T20:34:39.791Z,100.00
2022-11-19T20:37:42.589Z,100.00
2022-11-19T20:41:06.906Z,100.00
2022-11-19T20:44:21.667Z,100.00
2022-11-19T20:47:25.173Z,100.00
2022-11-19T20:50:27.832Z,100.00
2022-11-19T20:53:30.846Z,100.00
2022-11-19T20:56:33.470Z,100.00
2022-11-19T20:59:36.441Z,100.00
2022-11-19T21:02:39.088Z,100.00
2022-11-19T21:05:42.028Z,100.00
2022-11-19T21:08:50.214Z,100.00
2022-11-19T21:12:13.146Z,100.00
2022-11-19T21:15:58.789Z,100.00
2022-11-19T21:19:37.373Z,100.00
2022-11-19T21:23:30.004Z,100.00
2022-11-19T21:26:50.662Z,100.00
2022-11-19T21:29:53.751Z,100.00
2022-11-19T21:32:56.378Z,100.00
2022-11-19T21:36:00.056Z,100.00
2022-11-19T21:39:05.091Z,100.00
2022-11-19T21:42:27.192Z,100.00
2022-11-19T21:45:29.973Z,100.00
2022-11-19T21:48:33.105Z,100.00
2022-11-19T21:51:35.729Z,100.00
2022-11-19T21:54:39.151Z,100.00
2022-11-19T21:57:41.814Z,100.00
2022-11-19T22:00:46.854Z,100.00
2022-11-19T22:03:49.995Z,100.00
2022-11-19T22:06:52.598Z,100.00
2022-11-19T22:09:55.501Z,100.00
2022-11-19T22:12:58.936Z,100.00
2022-11-19T22:16:01.849Z,100.00
2022-11-19T22:19:05.749Z,100.00
2022-11-19T22:22:08.845Z,100.00
2022-11-19T22:25:12.864Z,100.00
2022-11-19T22:28:15.803Z,100.00
2022-11-19T22:31:18.442Z,100.00
2022-11-19T22:34:21.272Z,100.00
2022-11-19T22:37:23.916Z,100.00
2022-11-19T22:40:26.875Z,100.00
2022-11-19T22:43:30.991Z,100.00
2022-11-19T22:46:34.072Z,100.00
2022-11-19T22:49:36.665Z,100.00
2022-11-19T22:52:39.755Z,100.00
2022-11-19T22:55:42.400Z,100.00
2022-11-19T22:58:46.084Z,100.00
2022-11-19T23:01:48.876Z,100.00
2022-11-19T23:04:51.905Z,100.00
2022-11-19T23:07:54.469Z,100.00
2022-11-19T23:11:02.678Z,100.00
2022-11-19T23:14:07.711Z,100.00
2022-11-19T23:17:10.636Z,100.00
2022-11-19T23:20:13.223Z,100.00
2022-11-19T23:23:16.123Z,100.00
2022-11-19T23:26:26.306Z,100.00
2022-11-19T23:29:29.048Z,100.00
2022-11-19T23:32:31.593Z,100.00
2022-11-19T23:35:35.054Z,100.00
2022-11-19T23:38:39.391Z,100.00
2022-11-19T23:41:43.173Z,100.00
2022-11-19T23:44:45.887Z,100.00
2022-11-19T23:47:48.891Z,100.00
2022-11-19T23:50:51.637Z,100.00
2022-11-19T23:53:55.425Z,100.00
2022-11-19T23:56:58.335Z,100.00
